sensor_id;sensor_type;location;lat;lon;timestamp;P1;durP1;ratioP1;P2;durP2;ratioP2
19897;SDS011;10111;50.814;4.572;2023-04-15T00:00:14;6.80;;;3.60;;
19897;SDS011;10111;50.814;4.572;2023-04-15T00:02:41;3.93;;;3.57;;
19897;SDS011;10111;50.814;4.572;2023-04-15T00:05:06;4.20;;;3.27;;
19897;SDS011;10111;50.814;4.572;2023-04-15T00:07:32;4.23;;;3.23;;
19897;SDS011;10111;50.814;4.572;2023-04-15T00:09:58;4.80;;;3.63;;
19897;SDS011;10111;50.814;4.572;2023-04-15T00:12:27;6.87;;;3.97;;
19897;SDS011;10111;50.814;4.572;2023-04-15T00:14:52;4.23;;;3.87;;
19897;SDS011;10111;50.814;4.572;2023-04-15T00:17:18;4.37;;;3.43;;
19897;SDS011;10111;50.814;4.572;2023-04-15T00:19:44;3.23;;;2.90;;
19897;SDS011;10111;50.814;4.572;2023-04-15T00:22:10;4.70;;;3.30;;
19897;SDS011;10111;50.814;4.572;2023-04-15T00:24:36;3.73;;;2.50;;
19897;SDS011;10111;50.814;4.572;2023-04-15T00:27:02;3.20;;;2.90;;
19897;SDS011;10111;50.814;4.572;2023-04-15T00:29:28;4.23;;;3.53;;
19897;SDS011;10111;50.814;4.572;2023-04-15T00:31:54;4.80;;;3.50;;
19897;SDS011;10111;50.814;4.572;2023-04-15T00:34:21;5.27;;;3.53;;
19897;SDS011;10111;50.814;4.572;2023-04-15T00:36:50;4.83;;;2.70;;
19897;SDS011;10111;50.814;4.572;2023-04-15T00:39:16;4.00;;;3.30;;
19897;SDS011;10111;50.814;4.572;2023-04-15T00:41:42;5.20;;;3.27;;
19897;SDS011;10111;50.814;4.572;2023-04-15T00:44:09;4.63;;;3.10;;
19897;SDS011;10111;50.814;4.572;2023-04-15T00:46:35;3.63;;;3.03;;
19897;SDS011;10111;50.814;4.572;2023-04-15T00:49:03;3.10;;;2.70;;
19897;SDS011;10111;50.814;4.572;2023-04-15T00:51:30;5.17;;;3.57;;
19897;SDS011;10111;50.814;4.572;2023-04-15T00:53:57;4.47;;;3.03;;
19897;SDS011;10111;50.814;4.572;2023-04-15T00:56:24;3.63;;;3.17;;
19897;SDS011;10111;50.814;4.572;2023-04-15T00:58:51;3.97;;;3.07;;
19897;SDS011;10111;50.814;4.572;2023-04-15T01:01:20;3.97;;;2.57;;
19897;SDS011;10111;50.814;4.572;2023-04-15T01:03:47;5.83;;;3.37;;
19897;SDS011;10111;50.814;4.572;2023-04-15T01:06:14;4.23;;;3.73;;
19897;SDS011;10111;50.814;4.572;2023-04-15T01:08:40;3.97;;;3.17;;
19897;SDS011;10111;50.814;4.572;2023-04-15T01:11:06;4.00;;;3.10;;
19897;SDS011;10111;50.814;4.572;2023-04-15T01:13:33;6.47;;;3.20;;
19897;SDS011;10111;50.814;4.572;2023-04-15T01:16:00;4.10;;;3.47;;
19897;SDS011;10111;50.814;4.572;2023-04-15T01:18:27;5.53;;;4.70;;
19897;SDS011;10111;50.814;4.572;2023-04-15T01:20:53;6.13;;;4.10;;
19897;SDS011;10111;50.814;4.572;2023-04-15T01:23:20;6.77;;;4.40;;
19897;SDS011;10111;50.814;4.572;2023-04-15T01:25:47;5.17;;;4.07;;
19897;SDS011;10111;50.814;4.572;2023-04-15T01:28:14;5.87;;;4.13;;
19897;SDS011;10111;50.814;4.572;2023-04-15T01:30:40;8.00;;;4.97;;
19897;SDS011;10111;50.814;4.572;2023-04-15T01:33:05;8.60;;;4.37;;
19897;SDS011;10111;50.814;4.572;2023-04-15T01:35:31;5.87;;;4.50;;
19897;SDS011;10111;50.814;4.572;2023-04-15T01:38:00;5.93;;;4.30;;
19897;SDS011;10111;50.814;4.572;2023-04-15T01:40:31;4.77;;;4.10;;
19897;SDS011;10111;50.814;4.572;2023-04-15T01:42:58;5.10;;;3.93;;
19897;SDS011;10111;50.814;4.572;2023-04-15T01:45:24;5.47;;;4.10;;
19897;SDS011;10111;50.814;4.572;2023-04-15T01:47:50;6.23;;;3.90;;
19897;SDS011;10111;50.814;4.572;2023-04-15T01:50:16;7.07;;;3.50;;
19897;SDS011;10111;50.814;4.572;2023-04-15T01:52:41;4.40;;;3.43;;
19897;SDS011;10111;50.814;4.572;2023-04-15T01:55:07;3.43;;;3.13;;
19897;SDS011;10111;50.814;4.572;2023-04-15T01:57:33;5.67;;;3.47;;
19897;SDS011;10111;50.814;4.572;2023-04-15T01:59:59;4.10;;;3.13;;
19897;SDS011;10111;50.814;4.572;2023-04-15T02:02:25;4.40;;;3.13;;
19897;SDS011;10111;50.814;4.572;2023-04-15T02:04:50;5.93;;;2.87;;
19897;SDS011;10111;50.814;4.572;2023-04-15T02:07:17;4.07;;;2.90;;
19897;SDS011;10111;50.814;4.572;2023-04-15T02:09:43;2.97;;;2.67;;
19897;SDS011;10111;50.814;4.572;2023-04-15T02:12:10;3.57;;;2.77;;
19897;SDS011;10111;50.814;4.572;2023-04-15T02:14:36;3.63;;;2.43;;
19897;SDS011;10111;50.814;4.572;2023-04-15T02:17:02;4.23;;;3.00;;
19897;SDS011;10111;50.814;4.572;2023-04-15T02:19:31;3.40;;;3.10;;
19897;SDS011;10111;50.814;4.572;2023-04-15T02:21:58;5.70;;;3.17;;
19897;SDS011;10111;50.814;4.572;2023-04-15T02:24:25;4.60;;;3.20;;
19897;SDS011;10111;50.814;4.572;2023-04-15T02:26:51;3.43;;;2.80;;
19897;SDS011;10111;50.814;4.572;2023-04-15T02:29:17;4.90;;;3.10;;
19897;SDS011;10111;50.814;4.572;2023-04-15T02:31:42;3.70;;;2.80;;
19897;SDS011;10111;50.814;4.572;2023-04-15T02:34:09;4.47;;;3.10;;
19897;SDS011;10111;50.814;4.572;2023-04-15T02:36:34;3.60;;;2.70;;
19897;SDS011;10111;50.814;4.572;2023-04-15T02:39:00;3.70;;;2.80;;
19897;SDS011;10111;50.814;4.572;2023-04-15T02:41:26;3.90;;;2.60;;
19897;SDS011;10111;50.814;4.572;2023-04-15T02:43:54;3.53;;;3.20;;
19897;SDS011;10111;50.814;4.572;2023-04-15T02:46:20;3.30;;;3.00;;
19897;SDS011;10111;50.814;4.572;2023-04-15T02:48:47;4.90;;;3.30;;
19897;SDS011;10111;50.814;4.572;2023-04-15T02:51:13;3.20;;;2.90;;
19897;SDS011;10111;50.814;4.572;2023-04-15T02:53:47;5.77;;;3.70;;
19897;SDS011;10111;50.814;4.572;2023-04-15T02:56:13;6.67;;;2.90;;
19897;SDS011;10111;50.814;4.572;2023-04-15T02:58:42;6.23;;;3.27;;
19897;SDS011;10111;50.814;4.572;2023-04-15T03:01:09;3.37;;;3.03;;
19897;SDS011;10111;50.814;4.572;2023-04-15T03:03:35;3.73;;;3.20;;
19897;SDS011;10111;50.814;4.572;2023-04-15T03:06:01;3.60;;;3.03;;
19897;SDS011;10111;50.814;4.572;2023-04-15T03:08:27;6.17;;;4.00;;
19897;SDS011;10111;50.814;4.572;2023-04-15T03:10:54;7.17;;;4.10;;
19897;SDS011;10111;50.814;4.572;2023-04-15T03:13:22;8.57;;;3.80;;
19897;SDS011;10111;50.814;4.572;2023-04-15T03:15:48;6.07;;;4.30;;
19897;SDS011;10111;50.814;4.572;2023-04-15T03:18:14;5.53;;;4.30;;
19897;SDS011;10111;50.814;4.572;2023-04-15T03:20:39;6.67;;;4.53;;
19897;SDS011;10111;50.814;4.572;2023-04-15T03:23:05;7.13;;;4.23;;
19897;SDS011;10111;50.814;4.572;2023-04-15T03:25:31;5.70;;;4.10;;
19897;SDS011;10111;50.814;4.572;2023-04-15T03:27:56;5.87;;;4.37;;
19897;SDS011;10111;50.814;4.572;2023-04-15T03:30:22;5.67;;;4.70;;
19897;SDS011;10111;50.814;4.572;2023-04-15T03:32:48;6.47;;;4.10;;
19897;SDS011;10111;50.814;4.572;2023-04-15T03:35:13;6.77;;;4.57;;
19897;SDS011;10111;50.814;4.572;2023-04-15T03:37:39;6.57;;;5.17;;
19897;SDS011;10111;50.814;4.572;2023-04-15T03:40:05;7.03;;;5.13;;
19897;SDS011;10111;50.814;4.572;2023-04-15T03:42:31;8.20;;;5.43;;
19897;SDS011;10111;50.814;4.572;2023-04-15T03:44:58;5.27;;;4.77;;
19897;SDS011;10111;50.814;4.572;2023-04-15T03:47:23;8.13;;;5.10;;
19897;SDS011;10111;50.814;4.572;2023-04-15T03:49:49;6.80;;;5.40;;
19897;SDS011;10111;50.814;4.572;2023-04-15T03:52:15;8.27;;;5.50;;
19897;SDS011;10111;50.814;4.572;2023-04-15T03:54:40;10.57;;;6.17;;
19897;SDS011;10111;50.814;4.572;2023-04-15T03:57:06;10.27;;;6.87;;
19897;SDS011;10111;50.814;4.572;2023-04-15T03:59:32;9.03;;;5.87;;
19897;SDS011;10111;50.814;4.572;2023-04-15T04:01:58;7.17;;;6.17;;
19897;SDS011;10111;50.814;4.572;2023-04-15T04:04:23;7.93;;;6.27;;
19897;SDS011;10111;50.814;4.572;2023-04-15T04:06:49;8.80;;;6.17;;
19897;SDS011;10111;50.814;4.572;2023-04-15T04:09:15;7.30;;;6.23;;
19897;SDS011;10111;50.814;4.572;2023-04-15T04:11:40;9.23;;;6.10;;
19897;SDS011;10111;50.814;4.572;2023-04-15T04:14:06;9.10;;;6.90;;
19897;SDS011;10111;50.814;4.572;2023-04-15T04:16:31;7.50;;;6.63;;
19897;SDS011;10111;50.814;4.572;2023-04-15T04:18:57;10.40;;;6.23;;
19897;SDS011;10111;50.814;4.572;2023-04-15T04:21:23;11.90;;;7.00;;
19897;SDS011;10111;50.814;4.572;2023-04-15T04:23:49;7.73;;;6.47;;
19897;SDS011;10111;50.814;4.572;2023-04-15T04:26:15;11.33;;;6.77;;
19897;SDS011;10111;50.814;4.572;2023-04-15T04:28:40;9.40;;;6.93;;
19897;SDS011;10111;50.814;4.572;2023-04-15T04:31:06;9.10;;;6.63;;
19897;SDS011;10111;50.814;4.572;2023-04-15T04:33:32;8.90;;;6.93;;
19897;SDS011;10111;50.814;4.572;2023-04-15T04:35:58;8.50;;;7.07;;
19897;SDS011;10111;50.814;4.572;2023-04-15T04:38:23;9.73;;;7.07;;
19897;SDS011;10111;50.814;4.572;2023-04-15T04:40:49;8.50;;;6.63;;
19897;SDS011;10111;50.814;4.572;2023-04-15T04:43:15;7.50;;;6.23;;
19897;SDS011;10111;50.814;4.572;2023-04-15T04:45:41;7.73;;;6.57;;
19897;SDS011;10111;50.814;4.572;2023-04-15T04:48:07;9.80;;;6.80;;
19897;SDS011;10111;50.814;4.572;2023-04-15T04:50:34;8.67;;;6.17;;
19897;SDS011;10111;50.814;4.572;2023-04-15T04:53:00;8.23;;;6.60;;
19897;SDS011;10111;50.814;4.572;2023-04-15T04:55:26;8.90;;;6.80;;
19897;SDS011;10111;50.814;4.572;2023-04-15T04:57:52;9.33;;;6.53;;
19897;SDS011;10111;50.814;4.572;2023-04-15T05:00:18;11.30;;;6.80;;
19897;SDS011;10111;50.814;4.572;2023-04-15T05:02:44;9.07;;;6.33;;
19897;SDS011;10111;50.814;4.572;2023-04-15T05:05:10;12.03;;;6.53;;
19897;SDS011;10111;50.814;4.572;2023-04-15T05:07:36;8.57;;;6.33;;
19897;SDS011;10111;50.814;4.572;2023-04-15T05:10:03;7.43;;;6.47;;
19897;SDS011;10111;50.814;4.572;2023-04-15T05:12:29;7.97;;;6.00;;
19897;SDS011;10111;50.814;4.572;2023-04-15T05:14:55;8.40;;;6.37;;
19897;SDS011;10111;50.814;4.572;2023-04-15T05:17:21;8.27;;;6.00;;
19897;SDS011;10111;50.814;4.572;2023-04-15T05:19:46;7.73;;;6.03;;
19897;SDS011;10111;50.814;4.572;2023-04-15T05:22:12;9.33;;;7.27;;
19897;SDS011;10111;50.814;4.572;2023-04-15T05:24:38;10.77;;;6.50;;
19897;SDS011;10111;50.814;4.572;2023-04-15T05:27:03;9.13;;;6.30;;
19897;SDS011;10111;50.814;4.572;2023-04-15T05:29:29;8.90;;;6.77;;
19897;SDS011;10111;50.814;4.572;2023-04-15T05:31:55;9.47;;;6.20;;
19897;SDS011;10111;50.814;4.572;2023-04-15T05:34:21;11.10;;;6.13;;
19897;SDS011;10111;50.814;4.572;2023-04-15T05:36:46;7.73;;;6.47;;
19897;SDS011;10111;50.814;4.572;2023-04-15T05:39:12;9.97;;;6.33;;
19897;SDS011;10111;50.814;4.572;2023-04-15T05:41:38;9.00;;;6.47;;
19897;SDS011;10111;50.814;4.572;2023-04-15T05:44:03;8.53;;;7.23;;
19897;SDS011;10111;50.814;4.572;2023-04-15T05:46:30;7.90;;;7.03;;
19897;SDS011;10111;50.814;4.572;2023-04-15T05:48:55;7.60;;;6.60;;
19897;SDS011;10111;50.814;4.572;2023-04-15T05:51:21;8.50;;;6.53;;
19897;SDS011;10111;50.814;4.572;2023-04-15T05:53:47;10.83;;;6.43;;
19897;SDS011;10111;50.814;4.572;2023-04-15T05:56:12;7.90;;;6.20;;
19897;SDS011;10111;50.814;4.572;2023-04-15T05:58:38;10.07;;;6.40;;
19897;SDS011;10111;50.814;4.572;2023-04-15T06:01:03;7.23;;;6.37;;
19897;SDS011;10111;50.814;4.572;2023-04-15T06:03:29;13.23;;;11.70;;
19897;SDS011;10111;50.814;4.572;2023-04-15T06:05:55;11.73;;;9.43;;
19897;SDS011;10111;50.814;4.572;2023-04-15T06:08:21;33.00;;;20.53;;
19897;SDS011;10111;50.814;4.572;2023-04-15T06:10:46;12.47;;;8.30;;
19897;SDS011;10111;50.814;4.572;2023-04-15T06:13:12;12.70;;;6.13;;
19897;SDS011;10111;50.814;4.572;2023-04-15T06:15:38;7.00;;;5.90;;
19897;SDS011;10111;50.814;4.572;2023-04-15T06:18:03;12.83;;;8.90;;
19897;SDS011;10111;50.814;4.572;2023-04-15T06:20:29;9.30;;;6.93;;
19897;SDS011;10111;50.814;4.572;2023-04-15T06:22:55;15.00;;;9.97;;
19897;SDS011;10111;50.814;4.572;2023-04-15T06:25:21;9.87;;;6.87;;
19897;SDS011;10111;50.814;4.572;2023-04-15T06:27:47;9.90;;;6.23;;
19897;SDS011;10111;50.814;4.572;2023-04-15T06:30:13;10.43;;;6.87;;
19897;SDS011;10111;50.814;4.572;2023-04-15T06:32:39;41.00;;;27.97;;
19897;SDS011;10111;50.814;4.572;2023-04-15T06:35:05;10.47;;;7.27;;
19897;SDS011;10111;50.814;4.572;2023-04-15T06:37:30;14.70;;;7.40;;
19897;SDS011;10111;50.814;4.572;2023-04-15T06:39:56;10.17;;;8.33;;
19897;SDS011;10111;50.814;4.572;2023-04-15T06:42:22;6.27;;;5.50;;
19897;SDS011;10111;50.814;4.572;2023-04-15T06:44:48;43.53;;;33.93;;
19897;SDS011;10111;50.814;4.572;2023-04-15T06:47:14;42.07;;;33.70;;
19897;SDS011;10111;50.814;4.572;2023-04-15T06:49:40;38.30;;;32.13;;
19897;SDS011;10111;50.814;4.572;2023-04-15T06:52:07;15.10;;;13.50;;
19897;SDS011;10111;50.814;4.572;2023-04-15T06:54:32;12.47;;;9.90;;
19897;SDS011;10111;50.814;4.572;2023-04-15T06:56:58;11.33;;;7.77;;
19897;SDS011;10111;50.814;4.572;2023-04-15T06:59:24;7.60;;;6.37;;
19897;SDS011;10111;50.814;4.572;2023-04-15T07:01:51;11.70;;;6.73;;
19897;SDS011;10111;50.814;4.572;2023-04-15T07:04:17;11.60;;;6.53;;
19897;SDS011;10111;50.814;4.572;2023-04-15T07:06:42;6.80;;;6.10;;
19897;SDS011;10111;50.814;4.572;2023-04-15T07:09:08;8.90;;;6.07;;
19897;SDS011;10111;50.814;4.572;2023-04-15T07:11:34;7.90;;;5.63;;
19897;SDS011;10111;50.814;4.572;2023-04-15T07:14:00;8.47;;;5.60;;
19897;SDS011;10111;50.814;4.572;2023-04-15T07:16:26;9.33;;;6.43;;
19897;SDS011;10111;50.814;4.572;2023-04-15T07:18:52;10.43;;;6.90;;
19897;SDS011;10111;50.814;4.572;2023-04-15T07:21:18;13.33;;;6.43;;
19897;SDS011;10111;50.814;4.572;2023-04-15T07:23:43;11.17;;;6.37;;
19897;SDS011;10111;50.814;4.572;2023-04-15T07:26:09;7.30;;;6.23;;
19897;SDS011;10111;50.814;4.572;2023-04-15T07:28:35;10.97;;;6.53;;
19897;SDS011;10111;50.814;4.572;2023-04-15T07:31:00;10.77;;;8.53;;
19897;SDS011;10111;50.814;4.572;2023-04-15T07:33:26;13.47;;;8.10;;
19897;SDS011;10111;50.814;4.572;2023-04-15T07:35:52;9.17;;;6.80;;
19897;SDS011;10111;50.814;4.572;2023-04-15T07:38:18;11.90;;;5.67;;
19897;SDS011;10111;50.814;4.572;2023-04-15T07:40:43;10.23;;;6.50;;
19897;SDS011;10111;50.814;4.572;2023-04-15T07:43:10;10.93;;;6.77;;
19897;SDS011;10111;50.814;4.572;2023-04-15T07:45:37;12.27;;;7.57;;
19897;SDS011;10111;50.814;4.572;2023-04-15T07:48:03;11.00;;;8.03;;
19897;SDS011;10111;50.814;4.572;2023-04-15T07:50:29;12.37;;;8.60;;
19897;SDS011;10111;50.814;4.572;2023-04-15T07:52:55;13.03;;;11.00;;
19897;SDS011;10111;50.814;4.572;2023-04-15T07:55:21;29.30;;;22.27;;
19897;SDS011;10111;50.814;4.572;2023-04-15T07:57:48;17.37;;;11.47;;
19897;SDS011;10111;50.814;4.572;2023-04-15T08:00:15;10.60;;;8.67;;
19897;SDS011;10111;50.814;4.572;2023-04-15T08:02:41;18.57;;;9.43;;
19897;SDS011;10111;50.814;4.572;2023-04-15T08:05:07;13.33;;;10.70;;
19897;SDS011;10111;50.814;4.572;2023-04-15T08:07:35;22.90;;;20.47;;
19897;SDS011;10111;50.814;4.572;2023-04-15T08:10:02;20.87;;;18.67;;
19897;SDS011;10111;50.814;4.572;2023-04-15T08:12:28;14.90;;;8.10;;
19897;SDS011;10111;50.814;4.572;2023-04-15T08:14:54;12.73;;;10.80;;
19897;SDS011;10111;50.814;4.572;2023-04-15T08:17:20;12.77;;;8.93;;
19897;SDS011;10111;50.814;4.572;2023-04-15T08:19:45;13.13;;;9.63;;
19897;SDS011;10111;50.814;4.572;2023-04-15T08:22:12;11.90;;;10.13;;
19897;SDS011;10111;50.814;4.572;2023-04-15T08:24:38;11.83;;;9.97;;
19897;SDS011;10111;50.814;4.572;2023-04-15T08:27:04;12.33;;;10.57;;
19897;SDS011;10111;50.814;4.572;2023-04-15T08:29:30;12.50;;;9.33;;
19897;SDS011;10111;50.814;4.572;2023-04-15T08:31:58;14.83;;;8.87;;
19897;SDS011;10111;50.814;4.572;2023-04-15T08:34:25;15.47;;;9.60;;
19897;SDS011;10111;50.814;4.572;2023-04-15T08:36:51;11.20;;;8.33;;
19897;SDS011;10111;50.814;4.572;2023-04-15T08:39:16;12.87;;;8.77;;
19897;SDS011;10111;50.814;4.572;2023-04-15T08:41:46;13.23;;;7.90;;
19897;SDS011;10111;50.814;4.572;2023-04-15T08:44:16;17.13;;;10.33;;
19897;SDS011;10111;50.814;4.572;2023-04-15T08:46:42;32.80;;;25.27;;
19897;SDS011;10111;50.814;4.572;2023-04-15T08:49:11;15.47;;;11.23;;
19897;SDS011;10111;50.814;4.572;2023-04-15T08:51:40;23.27;;;17.63;;
19897;SDS011;10111;50.814;4.572;2023-04-15T08:54:07;16.67;;;11.20;;
19897;SDS011;10111;50.814;4.572;2023-04-15T08:56:33;12.63;;;8.07;;
19897;SDS011;10111;50.814;4.572;2023-04-15T08:59:01;5.80;;;5.20;;
19897;SDS011;10111;50.814;4.572;2023-04-15T09:01:27;7.80;;;4.73;;
19897;SDS011;10111;50.814;4.572;2023-04-15T09:03:53;8.83;;;6.37;;
19897;SDS011;10111;50.814;4.572;2023-04-15T09:06:20;7.13;;;6.03;;
19897;SDS011;10111;50.814;4.572;2023-04-15T09:08:47;8.47;;;6.03;;
19897;SDS011;10111;50.814;4.572;2023-04-15T09:11:13;8.97;;;5.03;;
19897;SDS011;10111;50.814;4.572;2023-04-15T09:13:39;7.93;;;5.93;;
19897;SDS011;10111;50.814;4.572;2023-04-15T09:16:05;9.47;;;6.03;;
19897;SDS011;10111;50.814;4.572;2023-04-15T09:18:32;9.30;;;6.30;;
19897;SDS011;10111;50.814;4.572;2023-04-15T09:23:33;10.57;;;6.47;;
19897;SDS011;10111;50.814;4.572;2023-04-15T09:26:03;8.23;;;6.03;;
19897;SDS011;10111;50.814;4.572;2023-04-15T09:28:29;7.43;;;5.93;;
19897;SDS011;10111;50.814;4.572;2023-04-15T09:30:59;7.47;;;5.93;;
19897;SDS011;10111;50.814;4.572;2023-04-15T09:33:27;8.47;;;7.63;;
19897;SDS011;10111;50.814;4.572;2023-04-15T09:36:01;8.87;;;6.70;;
19897;SDS011;10111;50.814;4.572;2023-04-15T09:38:30;10.93;;;7.27;;
19897;SDS011;10111;50.814;4.572;2023-04-15T09:40:57;6.23;;;5.33;;
19897;SDS011;10111;50.814;4.572;2023-04-15T09:43:38;10.90;;;6.57;;
19897;SDS011;10111;50.814;4.572;2023-04-15T09:46:04;7.33;;;5.20;;
19897;SDS011;10111;50.814;4.572;2023-04-15T09:48:30;6.43;;;5.53;;
19897;SDS011;10111;50.814;4.572;2023-04-15T09:50:56;8.73;;;5.70;;
19897;SDS011;10111;50.814;4.572;2023-04-15T09:53:24;7.50;;;6.50;;
19897;SDS011;10111;50.814;4.572;2023-04-15T09:55:54;7.17;;;5.77;;
19897;SDS011;10111;50.814;4.572;2023-04-15T09:58:25;7.33;;;5.30;;
19897;SDS011;10111;50.814;4.572;2023-04-15T10:00:53;9.10;;;5.73;;
19897;SDS011;10111;50.814;4.572;2023-04-15T10:03:24;6.40;;;3.80;;
19897;SDS011;10111;50.814;4.572;2023-04-15T10:05:52;9.73;;;5.23;;
19897;SDS011;10111;50.814;4.572;2023-04-15T10:08:22;6.67;;;4.90;;
19897;SDS011;10111;50.814;4.572;2023-04-15T10:10:51;8.10;;;4.60;;
19897;SDS011;10111;50.814;4.572;2023-04-15T10:13:18;8.77;;;4.80;;
19897;SDS011;10111;50.814;4.572;2023-04-15T10:15:51;6.70;;;4.83;;
19897;SDS011;10111;50.814;4.572;2023-04-15T10:18:25;7.80;;;5.07;;
19897;SDS011;10111;50.814;4.572;2023-04-15T10:20:52;8.27;;;5.17;;
19897;SDS011;10111;50.814;4.572;2023-04-15T10:23:18;5.33;;;4.13;;
19897;SDS011;10111;50.814;4.572;2023-04-15T10:25:45;5.87;;;4.33;;
19897;SDS011;10111;50.814;4.572;2023-04-15T10:28:11;4.60;;;3.63;;
19897;SDS011;10111;50.814;4.572;2023-04-15T10:30:38;5.13;;;3.53;;
19897;SDS011;10111;50.814;4.572;2023-04-15T10:33:04;4.47;;;3.60;;
19897;SDS011;10111;50.814;4.572;2023-04-15T10:35:31;5.20;;;3.80;;
19897;SDS011;10111;50.814;4.572;2023-04-15T10:37:58;5.07;;;4.17;;
19897;SDS011;10111;50.814;4.572;2023-04-15T10:40:30;4.47;;;3.70;;
19897;SDS011;10111;50.814;4.572;2023-04-15T10:43:00;4.27;;;3.77;;
19897;SDS011;10111;50.814;4.572;2023-04-15T10:45:33;5.17;;;3.27;;
19897;SDS011;10111;50.814;4.572;2023-04-15T10:48:03;3.83;;;3.03;;
19897;SDS011;10111;50.814;4.572;2023-04-15T10:50:31;4.87;;;3.60;;
19897;SDS011;10111;50.814;4.572;2023-04-15T10:52:57;5.10;;;3.47;;
19897;SDS011;10111;50.814;4.572;2023-04-15T10:55:24;3.07;;;2.57;;
19897;SDS011;10111;50.814;4.572;2023-04-15T10:57:54;3.30;;;2.97;;
19897;SDS011;10111;50.814;4.572;2023-04-15T11:00:24;3.57;;;2.97;;
19897;SDS011;10111;50.814;4.572;2023-04-15T11:05:18;4.23;;;3.37;;
19897;SDS011;10111;50.814;4.572;2023-04-15T11:12:44;6.43;;;3.37;;
19897;SDS011;10111;50.814;4.572;2023-04-15T11:15:37;4.47;;;2.87;;
19897;SDS011;10111;50.814;4.572;2023-04-15T11:20:39;3.27;;;2.70;;
19897;SDS011;10111;50.814;4.572;2023-04-15T11:23:06;6.03;;;3.30;;
19897;SDS011;10111;50.814;4.572;2023-04-15T11:25:33;5.87;;;3.57;;
19897;SDS011;10111;50.814;4.572;2023-04-15T11:28:01;4.20;;;3.23;;
19897;SDS011;10111;50.814;4.572;2023-04-15T11:30:28;3.27;;;2.97;;
19897;SDS011;10111;50.814;4.572;2023-04-15T11:33:06;3.73;;;3.07;;
19897;SDS011;10111;50.814;4.572;2023-04-15T11:35:32;4.87;;;3.43;;
19897;SDS011;10111;50.814;4.572;2023-04-15T11:38:09;4.20;;;2.13;;
19897;SDS011;10111;50.814;4.572;2023-04-15T11:40:37;3.03;;;2.53;;
19897;SDS011;10111;50.814;4.572;2023-04-15T11:45:29;5.10;;;3.50;;
19897;SDS011;10111;50.814;4.572;2023-04-15T11:47:59;4.73;;;4.17;;
19897;SDS011;10111;50.814;4.572;2023-04-15T11:50:32;9.60;;;8.20;;
19897;SDS011;10111;50.814;4.572;2023-04-15T11:52:59;12.77;;;8.93;;
19897;SDS011;10111;50.814;4.572;2023-04-15T11:55:29;7.37;;;6.30;;
19897;SDS011;10111;50.814;4.572;2023-04-15T11:58:12;6.30;;;4.07;;
19897;SDS011;10111;50.814;4.572;2023-04-15T12:00:51;8.87;;;6.70;;
19897;SDS011;10111;50.814;4.572;2023-04-15T12:03:30;10.93;;;6.73;;
19897;SDS011;10111;50.814;4.572;2023-04-15T12:13:52;4.23;;;3.83;;
19897;SDS011;10111;50.814;4.572;2023-04-15T12:16:19;4.50;;;4.10;;
19897;SDS011;10111;50.814;4.572;2023-04-15T12:18:46;11.90;;;9.00;;
19897;SDS011;10111;50.814;4.572;2023-04-15T12:21:14;3.00;;;2.70;;
19897;SDS011;10111;50.814;4.572;2023-04-15T12:23:49;5.17;;;2.57;;
19897;SDS011;10111;50.814;4.572;2023-04-15T12:26:16;7.13;;;4.57;;
19897;SDS011;10111;50.814;4.572;2023-04-15T12:28:43;4.03;;;3.00;;
19897;SDS011;10111;50.814;4.572;2023-04-15T12:31:09;8.37;;;3.90;;
19897;SDS011;10111;50.814;4.572;2023-04-15T12:33:36;3.83;;;2.43;;
19897;SDS011;10111;50.814;4.572;2023-04-15T12:36:02;4.43;;;3.47;;
19897;SDS011;10111;50.814;4.572;2023-04-15T12:38:28;7.43;;;5.07;;
19897;SDS011;10111;50.814;4.572;2023-04-15T12:40:55;5.70;;;3.03;;
19897;SDS011;10111;50.814;4.572;2023-04-15T12:43:21;25.37;;;14.80;;
19897;SDS011;10111;50.814;4.572;2023-04-15T12:45:47;32.57;;;18.13;;
19897;SDS011;10111;50.814;4.572;2023-04-15T12:48:12;8.50;;;5.87;;
19897;SDS011;10111;50.814;4.572;2023-04-15T12:50:38;27.73;;;18.60;;
19897;SDS011;10111;50.814;4.572;2023-04-15T12:53:04;4.77;;;2.57;;
19897;SDS011;10111;50.814;4.572;2023-04-15T12:55:29;12.57;;;7.07;;
19897;SDS011;10111;50.814;4.572;2023-04-15T12:57:55;16.00;;;7.73;;
19897;SDS011;10111;50.814;4.572;2023-04-15T13:00:21;4.93;;;2.70;;
19897;SDS011;10111;50.814;4.572;2023-04-15T13:02:47;1.70;;;1.50;;
19897;SDS011;10111;50.814;4.572;2023-04-15T13:05:13;1.83;;;1.63;;
19897;SDS011;10111;50.814;4.572;2023-04-15T13:07:40;5.20;;;4.70;;
19897;SDS011;10111;50.814;4.572;2023-04-15T13:10:06;4.03;;;3.63;;
19897;SDS011;10111;50.814;4.572;2023-04-15T13:12:32;3.67;;;1.87;;
19897;SDS011;10111;50.814;4.572;2023-04-15T13:15:01;3.90;;;2.80;;
19897;SDS011;10111;50.814;4.572;2023-04-15T13:17:28;4.37;;;2.53;;
19897;SDS011;10111;50.814;4.572;2023-04-15T13:19:53;3.03;;;2.60;;
19897;SDS011;10111;50.814;4.572;2023-04-15T13:22:19;5.60;;;3.23;;
19897;SDS011;10111;50.814;4.572;2023-04-15T13:24:45;3.30;;;2.30;;
19897;SDS011;10111;50.814;4.572;2023-04-15T13:27:11;2.43;;;1.83;;
19897;SDS011;10111;50.814;4.572;2023-04-15T13:29:36;5.47;;;2.43;;
19897;SDS011;10111;50.814;4.572;2023-04-15T13:32:04;2.20;;;1.90;;
19897;SDS011;10111;50.814;4.572;2023-04-15T13:34:30;2.30;;;2.10;;
19897;SDS011;10111;50.814;4.572;2023-04-15T13:36:56;3.00;;;1.97;;
19897;SDS011;10111;50.814;4.572;2023-04-15T13:39:22;3.47;;;1.80;;
19897;SDS011;10111;50.814;4.572;2023-04-15T13:41:47;4.90;;;2.10;;
19897;SDS011;10111;50.814;4.572;2023-04-15T13:44:13;2.40;;;1.80;;
19897;SDS011;10111;50.814;4.572;2023-04-15T13:46:39;4.23;;;2.57;;
19897;SDS011;10111;50.814;4.572;2023-04-15T13:49:06;2.60;;;2.40;;
19897;SDS011;10111;50.814;4.572;2023-04-15T13:51:32;4.57;;;2.40;;
19897;SDS011;10111;50.814;4.572;2023-04-15T13:54:00;2.30;;;1.83;;
19897;SDS011;10111;50.814;4.572;2023-04-15T13:56:26;2.47;;;2.10;;
19897;SDS011;10111;50.814;4.572;2023-04-15T13:58:51;3.37;;;2.20;;
19897;SDS011;10111;50.814;4.572;2023-04-15T14:01:18;4.17;;;2.70;;
19897;SDS011;10111;50.814;4.572;2023-04-15T14:03:44;6.00;;;2.97;;
19897;SDS011;10111;50.814;4.572;2023-04-15T14:06:10;4.37;;;2.03;;
19897;SDS011;10111;50.814;4.572;2023-04-15T14:08:35;3.17;;;2.40;;
19897;SDS011;10111;50.814;4.572;2023-04-15T14:11:01;3.17;;;2.27;;
19897;SDS011;10111;50.814;4.572;2023-04-15T14:13:27;5.80;;;2.27;;
19897;SDS011;10111;50.814;4.572;2023-04-15T14:15:53;4.17;;;2.63;;
19897;SDS011;10111;50.814;4.572;2023-04-15T14:18:20;2.77;;;1.83;;
19897;SDS011;10111;50.814;4.572;2023-04-15T14:20:45;4.03;;;2.20;;
19897;SDS011;10111;50.814;4.572;2023-04-15T14:23:11;3.77;;;1.67;;
19897;SDS011;10111;50.814;4.572;2023-04-15T14:25:37;1.33;;;1.23;;
19897;SDS011;10111;50.814;4.572;2023-04-15T14:28:03;4.13;;;2.00;;
19897;SDS011;10111;50.814;4.572;2023-04-15T14:30:29;1.27;;;0.87;;
19897;SDS011;10111;50.814;4.572;2023-04-15T14:32:54;1.20;;;1.10;;
19897;SDS011;10111;50.814;4.572;2023-04-15T14:35:20;2.97;;;1.00;;
19897;SDS011;10111;50.814;4.572;2023-04-15T14:37:46;2.33;;;2.13;;
19897;SDS011;10111;50.814;4.572;2023-04-15T14:40:11;3.23;;;1.80;;
19897;SDS011;10111;50.814;4.572;2023-04-15T14:42:37;4.33;;;2.70;;
19897;SDS011;10111;50.814;4.572;2023-04-15T14:45:03;3.83;;;2.33;;
19897;SDS011;10111;50.814;4.572;2023-04-15T14:47:29;3.90;;;2.50;;
19897;SDS011;10111;50.814;4.572;2023-04-15T14:49:55;3.87;;;3.07;;
19897;SDS011;10111;50.814;4.572;2023-04-15T14:52:21;3.20;;;2.90;;
19897;SDS011;10111;50.814;4.572;2023-04-15T14:54:47;2.40;;;2.20;;
19897;SDS011;10111;50.814;4.572;2023-04-15T14:57:12;7.87;;;7.07;;
19897;SDS011;10111;50.814;4.572;2023-04-15T14:59:38;3.27;;;3.00;;
19897;SDS011;10111;50.814;4.572;2023-04-15T15:02:04;5.43;;;4.27;;